Mc Gehee, Arkansas
Current Conditions -  °F | °C
As of 4:53 AM on Sunday 23 Nov 2014 (Local Time) from KGLH Reporting Station
Overcast Overcast  
Wind Chill: 16°   Ceiling: 1400
Heat Index: 16°   Visibility: 10mi
Dew Point: 14°   Wind: 15mph
Humidity: 87%   Direction: 130°SE
Pressure: 29.74"   Gusts: NA
Location:  33.7652°N, 91.2745°W
Report Text: KGLH 231053Z AUTO 13013KT 10SM OVC014 16/14 A2974 RMK AO2 SLP077 T01610139
Loading
Personal Weather Stations






























Interactive Weather Map New forecast layout! Learn more

10-Day Weather Forecast

Advertisements
Track Severe Weather on mobile